Hauptseite
METAR-TAF:

METAR-TAF

Flughäfen :

Baden-Baden, Deutschland

Flughafen Karlsruhe/Baden-Baden

Breite: 48-46-43N, Länge: 008-04-47E, Höhe: 124 m

Beobachtung

Neuester Wetterbericht von vor 37 Minuten, um 11:20 UTC
Wind 10 kt aus Süd/Südwest
Temperatur 8°C
Luftfeuchtigkeit 81%
Luftdruck 1027 hPa
Sichtweite 10 km oder mehr
keine Wolken unter 1500 m und keine Kumulonimbus oder Gewitterwolken

METAR: EDSB 231120Z 21010KT CAVOK 08/05 Q1027

Zeit: 12:57 (11:57 UTC)

Prognose

Neuester Wetterbericht von vor 57 Minuten, um 11:00 UTC
Gültige Prognose vom 23 um 12 UTC bis 24 um 12 UTC
Wind 10 kt aus Süd/Südwest
Sichtweite 10 km oder mehr
Durchbrochene Bewölkung in der Höhe von 4000 ft

TAF: EDSB 231100Z 2312/2412 20010KT 9999 BKN040

Wetterbeobachtungen und Prognosen von mehr als 4000 Flughäfen (METAR und TAF Bericht).

Die verfügbaren Stationen werden durch gelbe und rote Markierungen auf der Karte dargestellt.

Führen Sie die Maus auf sie, um den Namen der Station zu sehen.

Darauf klicken, um die Beobachtung von Wetterbeobachtungen und Prognosen zu sehen.

Um die Karte zu ändern : klicken Sie auf den grünen Tasten mit einem schwarzen Kreuz Zum Vergrößern, auf den grünen Button mit einem Gedankenstrich zu verkleinern, oder auf die grünen Pfeile für benachbarte Karten.


METAR-TAF: